Zaporizhzhia, Ukraine
Current Conditions -  °F | °C
As of 12:00 PM on Saturday 25 Oct 2014 (Local Time) from UKDE Reporting Station
Clear Clear  
Wind Chill: 25°   Ceiling: Unl
Heat Index: 34°   Visibility: 6mi
Dew Point: 19°   Wind: 11mph
Humidity: 56%   Direction: 50°NE
Pressure: 30.5"   Gusts: NA
Location:  47.85°N, 35.16°E
Report Text: UKDE 250900Z 05005MPS 010V090 CAVOK 01/M07 Q1033 02710364 NOSIG
Loading
Personal Weather Stations






























Interactive Weather Map
Tropical Storm Tracking
New forecast layout! Learn more

10-Day Weather Forecast

Advertisements
Track Severe Weather on mobile